Shindler, South Dakota
Current Conditions -  °F | °C
As of 6:56 AM on Saturday 25 Oct 2014 (Local Time) from KFSD Reporting Station
Clear Clear  
Wind Chill: 47°   Ceiling: Unl
Heat Index: 47°   Visibility: 10mi
Dew Point: 39°   Wind: 3mph
Humidity: 74%   Direction: 320°NW
Pressure: 30.1"   Gusts: NA
Location:  43.5199°N, 96.7933°W
Report Text: KFSD 251156Z 32003KT 10SM CLR 08/04 A3010 RMK AO2 SLP196 T00830039 10111 20072 53013
Loading
Personal Weather Stations






























Interactive Weather Map
Tropical Storm Tracking
New forecast layout! Learn more

10-Day Weather Forecast

Advertisements
Track Severe Weather on mobile